createdAt,value
2022-12-16T00:01:09.083Z,29.37
2022-12-16T00:04:10.950Z,31.00
2022-12-16T00:07:12.643Z,36.13
2022-12-16T00:10:14.756Z,32.40
2022-12-16T00:13:16.431Z,46.53
2022-12-16T00:16:19.982Z,43.47
2022-12-16T00:19:21.654Z,31.77
2022-12-16T00:22:23.797Z,37.63
2022-12-16T00:25:25.481Z,45.80
2022-12-16T00:28:27.637Z,46.83
2022-12-16T00:31:29.334Z,43.00
2022-12-16T00:34:31.073Z,32.20
2022-12-16T00:37:32.746Z,36.83
2022-12-16T00:40:34.725Z,30.87
2022-12-16T00:43:36.718Z,35.83
2022-12-16T00:46:38.554Z,26.97
2022-12-16T00:49:40.200Z,31.80
2022-12-16T00:52:41.999Z,30.47
2022-12-16T00:55:43.860Z,34.30
2022-12-16T00:58:45.533Z,29.63
2022-12-16T01:01:47.423Z,18.70
2022-12-16T01:04:49.222Z,32.03
2022-12-16T01:07:51.045Z,25.47
2022-12-16T01:10:56.076Z,32.53
2022-12-16T01:13:57.761Z,33.07
2022-12-16T01:16:59.488Z,28.30
2022-12-16T01:20:01.991Z,26.30
2022-12-16T01:23:03.883Z,38.50
2022-12-16T01:26:06.271Z,32.27
2022-12-16T01:29:07.946Z,34.40
2022-12-16T01:32:13.435Z,27.57
2022-12-16T01:35:44.248Z,37.77
2022-12-16T01:38:37.239Z,28.73
2022-12-16T01:41:39.006Z,30.57
2022-12-16T01:44:45.735Z,32.67
2022-12-16T01:47:47.465Z,26.37
2022-12-16T01:50:50.672Z,36.87
2022-12-16T01:53:57.546Z,36.90
2022-12-16T01:57:03.835Z,35.03
2022-12-16T02:00:06.573Z,40.27
2022-12-16T02:03:15.620Z,32.63
2022-12-16T02:06:17.581Z,45.77
2022-12-16T02:09:19.464Z,45.10
2022-12-16T02:12:37.319Z,38.23
2022-12-16T02:15:56.661Z,37.53
2022-12-16T02:19:29.236Z,34.80
2022-12-16T02:22:45.215Z,40.33
2022-12-16T02:26:11.945Z,39.53
2022-12-16T02:29:37.678Z,39.83
2022-12-16T02:33:14.651Z,42.40
2022-12-16T02:36:31.907Z,34.50
2022-12-16T02:39:46.581Z,43.43
2022-12-16T02:42:54.086Z,30.07
2022-12-16T02:45:57.049Z,33.53
2022-12-16T02:49:07.373Z,34.40
2022-12-16T02:52:09.149Z,29.73
2022-12-16T02:55:11.577Z,45.17
2022-12-16T02:58:36.656Z,39.80
2022-12-16T03:01:54.801Z,34.83
2022-12-16T03:05:06.283Z,35.17
2022-12-16T03:08:12.859Z,37.13
2022-12-16T03:11:14.632Z,37.10
2022-12-16T03:14:18.675Z,35.47
2022-12-16T03:17:24.105Z,35.13
2022-12-16T03:20:48.919Z,29.50
2022-12-16T03:24:01.537Z,33.93
2022-12-16T03:27:18.549Z,40.63
2022-12-16T03:30:25.626Z,42.07
2022-12-16T03:33:39.572Z,35.57
2022-12-16T03:36:43.616Z,38.90
2022-12-16T03:39:48.482Z,43.97
2022-12-16T03:42:52.706Z,42.37
2022-12-16T03:46:01.894Z,36.37
2022-12-16T03:49:03.627Z,40.90
2022-12-16T03:52:05.681Z,31.57
2022-12-16T03:55:07.655Z,33.87
2022-12-16T03:58:09.338Z,41.23
2022-12-16T04:01:11.165Z,34.10
2022-12-16T04:04:13.043Z,41.83
2022-12-16T04:07:20.867Z,37.27
2022-12-16T04:10:42.520Z,31.73
2022-12-16T04:14:03.227Z,34.70
2022-12-16T04:17:24.791Z,33.30
2022-12-16T04:20:52.283Z,31.17
2022-12-16T04:24:16.406Z,37.00
2022-12-16T04:27:27.604Z,29.30
2022-12-16T04:30:34.448Z,36.90
2022-12-16T04:33:55.045Z,34.03
2022-12-16T04:37:18.094Z,36.07
2022-12-16T04:40:38.472Z,35.17
2022-12-16T04:43:59.161Z,37.57
2022-12-16T04:47:19.544Z,40.40
2022-12-16T04:50:40.053Z,29.47
2022-12-16T04:54:00.578Z,29.87
2022-12-16T04:57:20.959Z,39.77
2022-12-16T05:00:41.344Z,28.13
2022-12-16T05:04:01.884Z,39.00
2022-12-16T05:07:22.075Z,32.87
2022-12-16T05:10:42.529Z,30.53
2022-12-16T05:14:02.842Z,39.17
2022-12-16T05:17:23.387Z,27.43
2022-12-16T05:20:43.884Z,32.77
2022-12-16T05:24:04.423Z,39.07
2022-12-16T05:27:26.035Z,36.23
2022-12-16T05:30:46.422Z,32.73
2022-12-16T05:34:06.801Z,30.13
2022-12-16T05:37:27.222Z,30.27
2022-12-16T05:40:47.733Z,28.63
2022-12-16T05:44:08.338Z,28.03
2022-12-16T05:47:28.979Z,28.47
2022-12-16T05:50:49.134Z,40.70
2022-12-16T05:54:09.633Z,32.67
2022-12-16T05:57:29.964Z,24.47
2022-12-16T06:00:50.534Z,26.43
2022-12-16T06:04:17.070Z,27.67
2022-12-16T06:07:37.575Z,28.43
2022-12-16T06:10:58.246Z,44.67
2022-12-16T06:14:18.967Z,31.10
2022-12-16T06:17:40.859Z,30.83
2022-12-16T06:21:01.829Z,29.53
2022-12-16T06:24:22.264Z,28.03
2022-12-16T06:27:42.671Z,23.63
2022-12-16T06:31:03.211Z,28.80
2022-12-16T06:34:23.687Z,28.23
2022-12-16T06:37:44.117Z,38.00
2022-12-16T06:41:04.491Z,28.17
2022-12-16T06:44:24.970Z,27.63
2022-12-16T06:47:45.445Z,32.53
2022-12-16T06:51:06.057Z,35.90
2022-12-16T06:54:26.505Z,27.70
2022-12-16T06:57:46.878Z,32.50
2022-12-16T07:01:07.191Z,30.40
2022-12-16T07:04:27.599Z,28.13
2022-12-16T07:07:47.980Z,30.27
2022-12-16T07:11:16.596Z,30.23
2022-12-16T07:14:37.331Z,30.83
2022-12-16T07:18:00.231Z,38.33
2022-12-16T07:21:20.606Z,50.10
2022-12-16T07:24:41.047Z,37.93
2022-12-16T07:28:13.697Z,35.00
2022-12-16T07:31:35.734Z,32.67
2022-12-16T07:34:56.029Z,34.67
2022-12-16T07:38:16.402Z,40.57
2022-12-16T07:41:36.994Z,37.60
2022-12-16T07:44:57.741Z,31.43
2022-12-16T07:48:18.342Z,31.33
2022-12-16T07:51:38.719Z,30.90
2022-12-16T07:54:59.095Z,39.17
2022-12-16T07:58:19.592Z,37.17
2022-12-16T08:01:40.211Z,37.50
2022-12-16T08:05:00.574Z,38.07
2022-12-16T08:08:20.772Z,45.20
2022-12-16T08:11:41.155Z,45.30
2022-12-16T08:15:01.591Z,43.80
2022-12-16T08:18:22.060Z,36.57
2022-12-16T08:21:42.514Z,40.40
2022-12-16T08:25:02.819Z,40.50
2022-12-16T08:28:23.370Z,36.63
2022-12-16T08:31:43.832Z,36.83
2022-12-16T08:35:04.315Z,40.97
2022-12-16T08:38:24.795Z,42.30
2022-12-16T08:41:45.222Z,46.27
2022-12-16T08:45:05.716Z,34.17
2022-12-16T08:48:26.273Z,44.80
2022-12-16T08:51:47.191Z,40.03
2022-12-16T08:55:07.662Z,30.50
2022-12-16T08:58:28.165Z,44.47
2022-12-16T09:01:49.021Z,41.07
2022-12-16T09:05:09.283Z,37.60
2022-12-16T09:08:29.866Z,40.30
2022-12-16T09:11:50.156Z,38.93
2022-12-16T09:15:10.656Z,44.13
2022-12-16T09:18:31.116Z,44.40
2022-12-16T09:21:51.503Z,41.37
2022-12-16T09:25:11.779Z,41.33
2022-12-16T09:28:32.213Z,45.33
2022-12-16T09:31:52.609Z,45.00
2022-12-16T09:35:13.850Z,39.67
2022-12-16T09:38:34.805Z,44.83
2022-12-16T09:41:58.252Z,48.67
2022-12-16T09:45:56.811Z,47.37
2022-12-16T09:49:29.522Z,41.57
2022-12-16T09:52:57.922Z,46.23
2022-12-16T09:56:19.411Z,48.70
2022-12-16T10:00:12.160Z,38.30
2022-12-16T10:03:40.048Z,39.10
2022-12-16T10:07:04.833Z,39.43
2022-12-16T10:10:55.390Z,44.43
2022-12-16T10:14:42.568Z,46.23
2022-12-16T10:18:04.634Z,133.10
2022-12-16T10:21:28.706Z,40.87
2022-12-16T10:25:20.373Z,49.53
2022-12-16T10:29:07.536Z,46.10
2022-12-16T10:32:52.918Z,44.87
2022-12-16T10:36:15.120Z,56.20
2022-12-16T10:39:42.593Z,52.50
2022-12-16T10:43:20.944Z,57.00
2022-12-16T10:46:47.721Z,50.13
2022-12-16T10:50:12.321Z,58.97
2022-12-16T10:53:45.332Z,54.97
2022-12-16T10:57:14.680Z,69.13
2022-12-16T11:00:38.124Z,69.00
2022-12-16T11:03:59.108Z,51.33
2022-12-16T11:07:19.509Z,56.07
2022-12-16T11:10:59.421Z,44.63
2022-12-16T11:14:34.361Z,50.20
2022-12-16T11:17:54.841Z,53.03
2022-12-16T11:21:26.938Z,52.70
2022-12-16T11:24:47.628Z,48.00
2022-12-16T11:28:08.059Z,51.90
2022-12-16T11:31:33.492Z,45.87
2022-12-16T11:34:54.198Z,51.43
2022-12-16T11:38:16.415Z,49.13
2022-12-16T11:41:47.033Z,49.87
2022-12-16T11:45:15.744Z,55.37
2022-12-16T11:48:59.254Z,49.17
2022-12-16T11:52:38.974Z,51.07
2022-12-16T11:56:10.799Z,47.63
2022-12-16T12:00:00.352Z,51.90
2022-12-16T12:03:29.409Z,46.30
2022-12-16T12:07:28.885Z,58.03
2022-12-16T12:10:58.137Z,48.77
2022-12-16T12:14:44.837Z,51.87
2022-12-16T12:18:30.269Z,55.47
2022-12-16T12:22:13.460Z,49.97
2022-12-16T12:25:42.675Z,50.30
2022-12-16T12:29:33.653Z,42.50
2022-12-16T12:32:59.784Z,50.57
2022-12-16T12:36:40.453Z,51.23
2022-12-16T12:40:08.111Z,44.37
2022-12-16T12:43:54.218Z,43.40
2022-12-16T12:47:22.690Z,43.40
2022-12-16T12:50:51.740Z,47.00
2022-12-16T12:54:30.124Z,41.87
2022-12-16T12:57:56.121Z,48.80
2022-12-16T13:01:19.352Z,72.87
2022-12-16T13:04:41.956Z,43.10
2022-12-16T13:08:02.330Z,45.03
2022-12-16T13:11:35.151Z,44.33
2022-12-16T13:14:55.738Z,39.90
2022-12-16T13:18:21.910Z,45.80
2022-12-16T13:21:57.395Z,35.83
2022-12-16T13:25:23.642Z,40.43
2022-12-16T13:28:49.837Z,46.43
2022-12-16T13:32:40.980Z,36.30
2022-12-16T13:36:19.841Z,42.83
2022-12-16T13:39:45.779Z,40.80
2022-12-16T13:43:07.628Z,47.03
2022-12-16T13:46:35.292Z,39.87
2022-12-16T13:49:55.633Z,41.67
2022-12-16T13:53:19.104Z,36.10
2022-12-16T13:56:44.896Z,37.87
2022-12-16T14:00:06.809Z,36.43
2022-12-16T14:03:46.138Z,42.40
2022-12-16T14:07:07.749Z,36.47
2022-12-16T14:10:44.625Z,34.97
2022-12-16T14:14:25.144Z,43.03
2022-12-16T14:17:59.662Z,37.87
2022-12-16T14:21:21.795Z,37.10
2022-12-16T14:24:46.176Z,39.07
2022-12-16T14:28:06.716Z,38.93
2022-12-16T14:31:41.265Z,40.17
2022-12-16T14:35:01.654Z,35.60
2022-12-16T14:38:43.976Z,52.87
2022-12-16T14:42:09.544Z,52.37
2022-12-16T14:45:40.941Z,44.33
2022-12-16T14:49:05.135Z,51.03
2022-12-16T14:52:42.386Z,46.20
2022-12-16T14:56:02.465Z,54.03
2022-12-16T14:59:35.776Z,45.90
2022-12-16T15:03:02.788Z,40.03
2022-12-16T15:06:26.438Z,43.13
2022-12-16T15:09:58.347Z,40.07
2022-12-16T15:13:19.214Z,47.37
2022-12-16T15:16:49.727Z,49.83
2022-12-16T15:20:12.081Z,65.00
2022-12-16T15:23:40.554Z,71.57
2022-12-16T15:27:01.093Z,58.73
2022-12-16T15:30:21.545Z,78.53
2022-12-16T15:33:56.685Z,61.33
2022-12-16T15:37:17.388Z,82.87
2022-12-16T15:40:47.638Z,75.57
2022-12-16T15:44:09.014Z,58.33
2022-12-16T15:47:44.387Z,43.70
2022-12-16T15:51:12.091Z,42.60
2022-12-16T15:54:35.194Z,49.90
2022-12-16T15:57:57.119Z,61.40
2022-12-16T16:01:18.758Z,54.07
2022-12-16T16:04:47.780Z,53.20
2022-12-16T16:08:08.198Z,50.97
2022-12-16T16:11:42.065Z,53.60
2022-12-16T16:15:02.596Z,56.87
2022-12-16T16:18:24.760Z,54.20
2022-12-16T16:21:45.327Z,47.80
2022-12-16T16:25:05.687Z,41.27
2022-12-16T16:28:27.123Z,43.70
2022-12-16T16:31:47.707Z,61.67
2022-12-16T16:35:08.243Z,49.07
2022-12-16T16:38:31.826Z,43.17
2022-12-16T16:41:52.299Z,43.03
2022-12-16T16:45:12.625Z,49.23
2022-12-16T16:48:35.772Z,45.17
2022-12-16T16:51:56.263Z,46.70
2022-12-16T16:55:16.778Z,48.60
2022-12-16T16:58:46.505Z,37.30
2022-12-16T17:02:06.982Z,38.23
2022-12-16T17:05:29.414Z,48.70
2022-12-16T17:08:49.838Z,37.30
2022-12-16T17:12:10.192Z,43.83
2022-12-16T17:15:55.485Z,49.93
2022-12-16T17:19:16.089Z,50.43
2022-12-16T17:22:36.594Z,47.00
2022-12-16T17:25:57.092Z,49.40
2022-12-16T17:29:17.820Z,62.43
2022-12-16T17:32:38.222Z,45.93
2022-12-16T17:35:58.568Z,45.40
2022-12-16T17:39:19.070Z,49.63
2022-12-16T17:42:44.810Z,52.70
2022-12-16T17:46:24.483Z,49.37
2022-12-16T17:49:44.759Z,46.03
2022-12-16T17:53:05.758Z,48.87
2022-12-16T17:56:26.383Z,48.97
2022-12-16T17:59:50.495Z,55.83
2022-12-16T18:03:14.874Z,51.70
2022-12-16T18:06:35.490Z,48.50
2022-12-16T18:09:55.999Z,49.37
2022-12-16T18:13:16.662Z,45.20
2022-12-16T18:16:37.227Z,46.97
2022-12-16T18:20:05.018Z,51.60
2022-12-16T18:23:25.521Z,40.70
2022-12-16T18:26:45.892Z,37.57
2022-12-16T18:30:06.288Z,36.20
2022-12-16T18:33:27.200Z,47.67
2022-12-16T18:36:47.551Z,40.80
2022-12-16T18:40:08.230Z,43.67
2022-12-16T18:43:28.698Z,47.80
2022-12-16T18:46:49.311Z,67.97
2022-12-16T18:50:09.613Z,59.77
2022-12-16T18:53:30.074Z,62.70
2022-12-16T18:56:50.525Z,67.90
2022-12-16T19:00:10.961Z,57.67
2022-12-16T19:03:31.426Z,47.00
2022-12-16T19:06:51.795Z,56.13
2022-12-16T19:10:12.145Z,52.20
2022-12-16T19:13:33.539Z,61.23
2022-12-16T19:16:54.162Z,52.57
2022-12-16T19:20:14.597Z,49.27
2022-12-16T19:23:35.318Z,44.27
2022-12-16T19:30:36.222Z,51.37
2022-12-16T19:33:56.752Z,46.80
2022-12-16T19:37:17.065Z,53.87
2022-12-16T19:40:37.401Z,43.17
2022-12-16T19:47:38.604Z,44.80
2022-12-16T19:50:59.115Z,43.17
2022-12-16T19:54:19.500Z,52.10
2022-12-16T19:57:40.181Z,36.90
2022-12-16T20:01:00.247Z,37.30
2022-12-16T20:04:20.483Z,44.60
2022-12-16T20:07:40.897Z,48.73
2022-12-16T20:11:01.463Z,54.20
2022-12-16T20:14:22.276Z,53.73
2022-12-16T20:17:42.453Z,67.37
2022-12-16T20:21:02.940Z,65.30
2022-12-16T20:24:23.344Z,67.63
2022-12-16T20:27:43.887Z,59.43
2022-12-16T20:31:04.599Z,56.27
2022-12-16T20:34:25.068Z,59.20
2022-12-16T20:37:45.575Z,93.33
2022-12-16T20:41:19.280Z,66.40
2022-12-16T20:44:39.662Z,70.00
2022-12-16T20:48:00.038Z,68.13
2022-12-16T20:55:02.972Z,62.73
2022-12-16T20:58:23.401Z,59.77
2022-12-16T21:01:56.106Z,46.33
2022-12-16T21:05:24.677Z,63.90
2022-12-16T21:08:45.700Z,63.83
2022-12-16T21:12:06.048Z,52.77
2022-12-16T21:14:42.786Z,75.93
2022-12-16T21:15:28.598Z,58.60
2022-12-16T21:18:49.063Z,50.87
2022-12-16T21:22:09.460Z,54.13
2022-12-16T21:25:29.608Z,39.63
2022-12-16T21:28:50.120Z,52.60
2022-12-16T21:32:10.291Z,58.43
2022-12-16T21:35:30.616Z,43.07
2022-12-16T21:38:51.848Z,56.10
2022-12-16T21:42:12.429Z,46.73
2022-12-16T21:45:33.152Z,71.57
2022-12-16T21:48:53.682Z,62.30
2022-12-16T21:52:16.625Z,41.67
2022-12-16T21:55:37.137Z,46.17
2022-12-16T21:58:57.543Z,61.87
2022-12-16T22:02:18.114Z,53.80
2022-12-16T22:05:38.287Z,52.73
2022-12-16T22:09:00.832Z,71.53
2022-12-16T22:12:21.336Z,51.77
2022-12-16T22:15:41.857Z,54.20
2022-12-16T22:19:02.897Z,68.60
2022-12-16T22:22:23.169Z,58.43
2022-12-16T22:25:44.371Z,65.57
2022-12-16T22:29:05.030Z,73.77
2022-12-16T22:32:25.595Z,65.37
2022-12-16T22:35:45.936Z,67.83
2022-12-16T22:39:06.296Z,56.47
2022-12-16T22:42:26.642Z,80.23
2022-12-16T22:45:47.082Z,64.07
2022-12-16T22:49:07.618Z,63.63
2022-12-16T22:52:28.079Z,57.97
2022-12-16T22:55:48.501Z,59.60
2022-12-16T22:59:09.048Z,59.03
2022-12-16T23:02:29.497Z,66.23
2022-12-16T23:05:49.986Z,72.77
2022-12-16T23:09:10.451Z,75.13
2022-12-16T23:12:30.957Z,54.83
2022-12-16T23:15:51.355Z,66.00
2022-12-16T23:19:31.950Z,63.23
2022-12-16T23:22:52.510Z,85.50
2022-12-16T23:26:18.761Z,73.73
2022-12-16T23:29:39.178Z,78.10
2022-12-16T23:32:59.604Z,69.07
2022-12-16T23:36:20.004Z,67.47
2022-12-16T23:39:40.328Z,65.17
2022-12-16T23:43:00.864Z,64.47
2022-12-16T23:46:21.393Z,69.37
2022-12-16T23:49:58.409Z,70.97
2022-12-16T23:53:27.847Z,75.97
2022-12-16T23:56:48.286Z,76.83
